Latest Weather Observations for Hartz Mountains

IDT60801

Issued at 6:31 am EST Monday 27 April 2015 (issued every 30 minutes, with the page automatically refreshed every 10 minutes)

About weather observations | Map of weather stations | Latest weather observations for TAS | Other Formats
Station Details ID: 094191 Name: HARTZ MOUNTAIN (KEOGHS PIMPLE) Lat: -43.20 Lon: 146.77 Height: 831.0 m
Data from the previous 72 hours. | See also: Recent months at Hartz Mountains
Date/Time
EST
Temp
°C
App
Temp
°C
Dew
Point
Rel
Hum
%
Delta-T
°C
Wind Press
QNH
hPa
Press
MSL
hPa
Rain
since 9 am
mm
Dir
 
Spd
km/h
Gust
km/h
Spd
kts
Gust
kts
27/06:30am 2.7 -5.9 2.7 100 0.0 WSW 37 48 20 26 - - 3.6
27/06:00am 2.5 -7.3 2.5 100 0.0 WSW 43 56 23 30 - - 3.6
27/05:30am 2.3 -7.7 2.3 100 0.0 WSW 44 59 24 32 - - 3.6
27/05:15am 2.4 -7.9 2.4 100 0.0 WSW 46 65 25 35 - - 3.6
27/05:00am 2.5 -8.6 2.5 100 0.0 SW 50 65 27 35 - - 3.6
27/04:30am 2.4 -9.1 2.4 100 0.0 WSW 52 65 28 35 - - 3.6
27/04:00am 2.5 -8.6 2.5 100 0.0 WSW 50 67 27 36 - - 3.6
27/03:30am 2.4 -7.9 2.4 100 0.0 WSW 46 63 25 34 - - 3.6
27/03:00am 2.5 -7.3 2.5 100 0.0 WSW 43 57 23 31 - - 3.6
27/02:30am 2.5 -8.6 2.5 100 0.0 WSW 50 67 27 36 - - 3.6
27/02:29am 2.5 -8.2 2.5 100 0.0 WSW 48 67 26 36 - - 3.6
27/02:00am 2.5 -7.8 2.5 100 0.0 WSW 46 59 25 32 - - 3.6
27/01:34am 2.5 -7.8 2.5 100 0.0 WSW 46 65 25 35 - - 3.6
27/01:30am 2.5 -7.8 2.5 100 0.0 WSW 46 61 25 33 - - 3.6
27/01:00am 2.3 -7.5 2.3 100 0.0 WSW 43 61 23 33 - - 3.6
27/12:59am 2.3 -7.5 2.3 100 0.0 WSW 43 61 23 33 - - 3.6
27/12:30am 2.3 -8.8 2.3 100 0.0 WSW 50 67 27 36 - - 3.4
27/12:01am 2.4 -7.9 2.4 100 0.0 WSW 46 69 25 37 - - 3.4
27/12:00am 2.5 -7.8 2.5 100 0.0 WSW 46 63 25 34 - - 3.4
 
Date/Time
EST
Temp
°C
App
Temp
°C
Dew
Point
Rel
Hum
%
Delta-T
°C
Wind Press
QNH
hPa
Press
MSL
hPa
Rain
since 9 am
mm
Dir
 
Spd
km/h
Gust
km/h
Spd
kts
Gust
kts
26/11:39pm 2.5 -7.4 2.5 100 0.0 WSW 44 63 24 34 - - 3.4
26/11:30pm 2.5 -7.4 2.5 100 0.0 WSW 44 59 24 32 - - 3.4
26/11:00pm 2.5 -7.3 2.5 100 0.0 WSW 43 56 23 30 - - 3.4
26/10:30pm 2.5 -7.4 2.5 100 0.0 WSW 44 61 24 33 - - 3.4
26/10:00pm 2.7 -7.0 2.7 100 0.0 WSW 43 54 23 29 - - 3.4
26/09:30pm 2.7 -7.2 2.7 100 0.0 WSW 44 57 24 31 - - 3.4
26/09:00pm 2.6 -7.1 2.6 100 0.0 WSW 43 54 23 29 - - 3.4
26/08:30pm 2.5 -6.9 2.4 99 0.0 WSW 41 54 22 29 - - 3.4
26/08:00pm 2.4 -7.6 2.3 99 0.0 WSW 44 57 24 31 - - 3.4
26/07:30pm 2.5 -7.5 2.4 99 0.0 WSW 44 67 24 36 - - 3.2
26/07:19pm 2.7 -7.2 2.6 99 0.0 WSW 44 63 24 34 - - 3.2
26/07:00pm 2.5 -8.3 2.2 98 0.1 WSW 48 63 26 34 - - 3.2
26/06:33pm 2.8 -7.1 2.7 99 0.0 WSW 44 63 24 34 - - 3.2
26/06:30pm 2.8 -7.1 2.7 99 0.0 WSW 44 57 24 31 - - 3.2
26/06:03pm 3.0 -6.7 2.9 99 0.0 WSW 43 61 23 33 - - 3.2
26/06:00pm 3.0 -6.9 2.9 99 0.0 WSW 44 61 24 33 - - 3.2
26/05:38pm 3.0 -6.9 2.9 99 0.0 WSW 44 63 24 34 - - 3.2
26/05:30pm 3.4 -6.4 3.3 99 0.0 WSW 44 61 24 33 - - 3.2
26/05:00pm 3.3 -6.5 3.2 99 0.0 WSW 44 63 24 34 - - 3.2
26/04:40pm 4.0 -4.4 3.9 99 0.0 WSW 37 56 20 30 - - 3.0
26/04:30pm 4.1 -3.5 4.0 99 0.0 WSW 33 48 18 26 - - 3.0
26/04:00pm 4.3 -3.1 4.0 98 0.1 WSW 32 46 17 25 - - 3.0
26/03:32pm 4.3 -2.3 4.0 98 0.1 WSW 28 48 15 26 - - 2.0
26/03:30pm 4.4 -1.8 4.1 98 0.1 WSW 26 48 14 26 - - 2.0
26/03:00pm 4.3 -3.1 4.0 98 0.1 W 32 52 17 28 - - 1.6
26/02:33pm 4.3 -2.4 3.9 97 0.2 WNW 28 46 15 25 - - 1.2
26/02:30pm 4.4 -2.2 4.0 97 0.2 WNW 28 43 15 23 - - 1.0
26/02:03pm 5.3 -1.9 4.9 97 0.2 W 32 52 17 28 - - 0.6
26/02:00pm 4.8 -1.8 4.4 97 0.2 W 28 52 15 28 - - 0.6
26/01:30pm 4.5 -2.5 3.9 96 0.3 W 30 46 16 25 - - 0.2
26/01:00pm 4.6 -3.7 4.2 97 0.2 W 37 56 20 30 - - 0.0
26/12:40pm 4.5 -2.1 4.1 97 0.2 W 28 54 15 29 - - 0.0
26/12:30pm 4.2 -2.5 3.8 97 0.2 W 28 46 15 25 - - 0.0
26/12:00pm 4.0 -3.5 3.6 97 0.2 W 32 50 17 27 - - 0.0
26/11:30am 3.9 -3.6 3.5 97 0.2 W 32 52 17 28 - - 0.0
26/11:03am 3.5 -5.0 3.1 97 0.2 WNW 37 61 20 33 - - 0.0
26/11:00am 3.4 -5.2 2.8 96 0.3 WNW 37 54 20 29 - - 0.0
26/10:32am 3.6 -3.6 2.9 95 0.3 WNW 30 48 16 26 - - 0.0
26/10:30am 3.6 -3.2 2.9 95 0.3 W 28 44 15 24 - - 0.0
26/10:00am 3.3 -4.3 2.9 97 0.2 W 32 50 17 27 - - 0.0
26/09:31am 2.9 -4.7 2.6 98 0.1 W 32 52 17 28 - - 0.0
26/09:30am 2.7 -5.0 2.4 98 0.1 W 32 48 17 26 - - 0.0
26/09:00am 2.5 -5.4 2.4 99 0.0 W 33 46 18 25 - - 0.6
26/08:30am 2.1 -7.0 2.0 99 0.0 WSW 39 50 21 27 - - 0.6
26/08:00am 1.9 -8.2 1.8 99 0.0 WSW 44 59 24 32 - - 0.6
26/07:33am 1.8 -8.3 1.7 99 0.0 WSW 44 63 24 34 - - 0.6
26/07:30am 1.8 -8.7 1.7 99 0.0 W 46 63 25 34 - - 0.6
26/07:24am 1.9 -8.0 1.8 99 0.0 W 43 63 23 34 - - 0.4
26/07:00am 2.0 -6.7 1.9 99 0.0 WSW 37 48 20 26 - - 0.4
26/06:31am 2.0 -5.0 1.9 99 0.0 WSW 28 46 15 25 - - 0.4
26/06:30am 2.0 -4.6 1.9 99 0.0 WSW 26 46 14 25 - - 0.4
26/06:00am 1.9 -2.3 1.6 98 0.1 W 13 26 7 14 - - 0.4
26/05:30am 1.8 -5.7 1.4 97 0.2 WSW 30 41 16 22 - - 0.4
26/05:00am 1.8 -5.7 1.5 98 0.1 W 30 39 16 21 - - 0.4
26/04:43am 1.8 -5.2 1.7 99 0.0 WSW 28 46 15 25 - - 0.4
26/04:30am 1.8 -6.2 1.7 99 0.0 WSW 33 44 18 24 - - 0.4
26/04:00am 2.1 -3.2 2.0 99 0.0 WSW 19 32 10 17 - - 0.2
26/03:30am 2.1 -3.2 1.8 98 0.1 W 19 28 10 15 - - 0.2
26/03:00am 2.0 -3.9 1.7 98 0.1 WSW 22 30 12 16 - - 0.2
26/02:30am 2.1 -3.8 1.7 97 0.2 WSW 22 30 12 16 - - 0.2
26/02:00am 2.1 -3.4 1.8 98 0.1 WSW 20 28 11 15 - - 0.2
26/01:30am 2.1 -2.5 1.8 98 0.1 WSW 15 19 8 10 - - 0.2
26/01:00am 2.4 -2.5 2.1 98 0.1 WSW 17 24 9 13 - - 0.2
26/12:30am 2.3 -2.6 2.0 98 0.1 WSW 17 22 9 12 - - 0.2
26/12:00am 2.4 -2.5 2.0 97 0.2 WSW 17 22 9 12 - - 0.2
 
Date/Time
EST
Temp
°C
App
Temp
°C
Dew
Point
Rel
Hum
%
Delta-T
°C
Wind Press
QNH
hPa
Press
MSL
hPa
Rain
since 9 am
mm
Dir
 
Spd
km/h
Gust
km/h
Spd
kts
Gust
kts
25/11:30pm 2.6 -1.9 2.0 96 0.2 WSW 15 20 8 11 - - 0.2
25/11:00pm 2.8 -1.0 1.9 94 0.4 W 11 15 6 8 - - 0.2
25/10:30pm 2.6 -1.2 1.9 95 0.3 W 11 15 6 8 - - 0.2
25/10:00pm 2.6 -0.5 1.6 93 0.4 WSW 7 9 4 5 - - 0.2
25/09:30pm 2.8 -1.0 1.6 92 0.5 SW 11 15 6 8 - - 0.2
25/09:00pm 2.8 -0.6 1.8 93 0.4 SW 9 15 5 8 - - 0.2
25/08:30pm 2.7 -0.1 2.0 95 0.3 SSW 6 11 3 6 - - 0.2
25/08:00pm 2.7 -1.4 2.1 96 0.2 SW 13 22 7 12 - - 0.2
25/07:30pm 2.8 -2.0 2.4 97 0.2 SSW 17 26 9 14 - - 0.2
25/07:00pm 2.9 -1.9 2.5 97 0.2 SSW 17 24 9 13 - - 0.0
25/06:30pm 3.0 -3.1 2.6 97 0.2 SW 24 30 13 16 - - 0.0
25/06:00pm 3.3 -1.9 2.6 95 0.3 SSW 19 26 10 14 - - 0.0
25/05:30pm 3.6 -1.7 2.9 95 0.3 SW 20 28 11 15 - - 0.0
25/05:00pm 4.0 -0.3 3.1 94 0.4 SW 15 20 8 11 - - 0.0
25/04:30pm 4.6 0.3 3.4 92 0.5 SSW 15 22 8 12 - - 0.0
25/04:00pm 4.8 0.8 3.1 89 0.7 SW 13 20 7 11 - - 0.0
25/03:30pm 5.5 1.7 4.0 90 0.7 SW 13 20 7 11 - - 0.0
25/03:00pm 5.2 0.2 3.5 89 0.7 SW 19 30 10 16 - - 0.0
25/02:30pm 5.6 1.8 3.9 89 0.8 SW 13 19 7 10 - - 0.0
25/02:00pm 5.9 1.8 4.4 90 0.7 WSW 15 20 8 11 - - 0.0
25/01:30pm 5.9 1.8 4.2 89 0.8 SW 15 24 8 13 - - 0.0
25/01:00pm 6.6 3.0 5.1 90 0.7 WSW 13 20 7 11 - - 0.0
25/12:30pm 6.0 1.9 4.2 88 0.8 WSW 15 20 8 11 - - 0.0
25/12:00pm 4.6 -0.6 3.6 93 0.4 SW 20 30 11 16 - - 0.0
25/11:30am 4.8 -0.2 3.6 92 0.5 SSW 19 26 10 14 - - 0.0
25/11:00am 4.8 0.2 3.8 93 0.4 SW 17 24 9 13 - - 0.0
25/10:30am 4.4 -0.6 3.7 95 0.3 SW 19 26 10 14 - - 0.0
25/10:00am 4.1 -1.6 3.1 93 0.4 SW 22 30 12 16 - - 0.0
25/09:30am 5.1 0.1 4.7 97 0.2 SW 20 26 11 14 - - 0.0
25/09:00am 3.9 -1.3 3.6 98 0.1 SW 20 30 11 16 - - 1.6
25/08:30am 4.0 -3.1 3.7 98 0.1 SSW 30 39 16 21 - - 1.6
25/08:00am 4.0 -2.7 3.7 98 0.1 SSW 28 39 15 21 - - 1.6
25/07:30am 4.3 -1.6 4.0 98 0.1 SSW 24 33 13 18 - - 1.6
25/07:00am 4.8 -1.0 4.4 97 0.2 SW 24 32 13 17 - - 1.6
25/06:30am 4.9 -0.1 4.5 97 0.2 SSW 20 28 11 15 - - 1.4
25/06:00am 5.2 0.4 4.8 97 0.2 SSW 19 28 10 15 - - 1.4
25/05:30am 5.2 2.3 4.8 97 0.2 S 9 28 5 15 - - 1.0
25/05:00am 5.0 2.6 4.4 96 0.3 WSW 6 9 3 5 - - 0.6
25/04:30am 5.1 2.7 4.4 95 0.3 E 6 13 3 7 - - 0.4
25/04:00am 4.9 0.5 4.5 97 0.2 SW 17 28 9 15 - - 0.4
25/03:30am 5.3 0.9 5.0 98 0.1 WSW 17 37 9 20 - - 0.4
25/03:00am 5.3 2.1 5.0 98 0.1 SW 11 24 6 13 - - 0.2
25/02:30am 5.3 2.1 5.0 98 0.1 SSW 11 26 6 14 - - 0.0
25/02:00am 5.2 2.3 4.9 98 0.1 WSW 9 19 5 10 - - 0.0
25/01:30am 5.4 1.1 5.1 98 0.1 WSW 17 30 9 16 - - 0.0
25/01:00am 5.4 1.1 5.1 98 0.1 WSW 17 28 9 15 - - 0.0
25/12:30am 5.4 1.4 5.1 98 0.1 WSW 15 26 8 14 - - 0.0
25/12:00am 5.4 1.1 5.1 98 0.1 WSW 17 28 9 15 - - 0.0
 
Date/Time
EST
Temp
°C
App
Temp
°C
Dew
Point
Rel
Hum
%
Delta-T
°C
Wind Press
QNH
hPa
Press
MSL
hPa
Rain
since 9 am
mm
Dir
 
Spd
km/h
Gust
km/h
Spd
kts
Gust
kts
24/11:30pm 5.4 0.5 5.1 98 0.1 WSW 20 30 11 16 - - 0.0
24/11:00pm 5.4 0.7 5.1 98 0.1 WSW 19 32 10 17 - - 0.0
24/10:30pm 5.7 0.5 5.4 98 0.1 WSW 22 35 12 19 - - 0.0
24/10:00pm 5.9 1.3 5.5 97 0.2 WSW 19 30 10 16 - - 0.0
24/09:30pm 6.1 1.9 5.7 97 0.2 WSW 17 32 9 17 - - 0.0
24/09:00pm 6.3 2.9 5.9 97 0.2 SSW 13 26 7 14 - - 0.0
24/08:30pm 6.3 3.3 5.9 97 0.2 SW 11 26 6 14 - - 0.0
24/08:00pm 6.5 2.3 5.9 96 0.3 SW 17 26 9 14 - - 0.0
24/07:30pm 6.6 2.4 5.9 95 0.3 SW 17 26 9 14 - - 0.0
24/07:00pm 6.7 2.6 6.0 95 0.3 SW 17 28 9 15 - - 0.0
24/06:30pm 7.0 2.8 5.9 93 0.5 WSW 17 32 9 17 - - 0.0
24/06:00pm 7.4 3.3 6.3 93 0.5 WSW 17 26 9 14 - - 0.0
24/05:30pm 7.6 3.9 6.2 91 0.7 SW 15 24 8 13 - - 0.0
24/05:00pm 7.9 5.4 6.5 91 0.7 WSW 9 22 5 12 - - 0.0
24/04:30pm 8.3 4.3 6.6 89 0.8 WSW 17 28 9 15 - - 0.0
24/04:00pm 9.3 5.3 6.7 84 1.3 WSW 17 24 9 13 - - 0.0
24/03:30pm 9.4 6.2 7.0 85 1.2 WSW 13 24 7 13 - - 0.0
24/03:00pm 9.7 5.5 7.3 85 1.2 W 19 28 10 15 - - 0.0
24/02:30pm 10.0 5.8 7.3 83 1.3 W 19 28 10 15 - - 0.0
24/02:00pm 10.2 6.7 7.3 82 1.4 W 15 24 8 13 - - 0.0
24/01:30pm 9.8 5.9 7.1 83 1.3 WSW 17 24 9 13 - - 0.0
24/01:00pm 9.4 4.9 6.8 84 1.3 SW 20 30 11 16 - - 0.0
24/12:30pm 10.4 6.7 8.0 85 1.2 SW 17 24 9 13 - - 0.0
24/12:00pm 9.9 5.1 7.2 83 1.3 WSW 22 32 12 17 - - 0.0
24/11:30am 10.6 6.3 7.8 83 1.4 WSW 20 26 11 14 - - 0.0
24/11:00am 10.5 7.0 7.2 80 1.6 WSW 15 22 8 12 - - 0.0
24/10:30am 10.0 7.8 7.8 86 1.1 W 9 15 5 8 - - 0.0
24/10:00am 9.1 6.0 7.4 89 0.8 WSW 13 20 7 11 - - 0.0
24/09:30am 8.3 4.7 6.9 91 0.7 WSW 15 19 8 10 - - 0.0
24/09:00am 8.3 4.8 7.1 92 0.6 WSW 15 19 8 10 - - -
24/08:30am 8.0 4.4 6.8 92 0.6 WSW 15 19 8 10 - - -
24/08:00am 7.8 4.9 6.7 93 0.5 SW 11 19 6 10 - - -
24/07:30am 7.6 4.7 6.7 94 0.4 SW 11 20 6 11 - - -
24/07:00am 7.3 5.1 6.4 94 0.4 WSW 7 15 4 8 - - -

Other Formats:

Comma delimited format used in spreadsheet applications
http://www.bom.gov.au/fwo/IDT60801/IDT60801.94977.axf

JavaScript Object Notation format (JSON) in row-major order
http://www.bom.gov.au/fwo/IDT60801/IDT60801.94977.json